Startpagina
METAR-TAF:

METAR-TAF

Vliegvelden :

Kansas City International Airport

Kansas City, Missouri, Verenigde Staten

breedte: 39-17-50N, lengte: 094-43-50W, hoogte: 312 m

Actueel weer

Dit bericht is 44 minuten geleden gemaakt, om 18:53 UTC
Wind 4 kt uit het noorden
Temperatuur 26°C
Vochtigheid 61%
Druk 1009 hPa
Zicht: 16.1 km
Verspreide wolken op 2700 ft
Verspreide wolken op 13000 ft

METAR: KMCI 231853Z 01004KT 10SM SCT027 SCT130 26/18 A2981 RMK AO2 SLP086 T02610178

Tijdstip: 14:37 (19:37 UTC)

Verwachting

Dit bericht is 11 minuten geleden gemaakt, om 19:26 UTC
Verwachting geldig van 23 om 19 UTC tot 24 om 18 UTC
Wind 4 kt uit variabele richting
Zicht: 10 km
Verspreide wolken op 2700 ft
Verspreide wolken op 13000 ft
Van 24 om 0500 UTC
Wind 5 kt uit het zuidoosten
Zicht: 10 km
Weinig wolken op 25000 ft

TAF: KMCI 231926Z 2319/2418 VRB04KT P6SM SCT027 SCT130 FM240500 14005KT P6SM FEW250

Waarnemingen en weersverwachtingen van meer dan 4000 vliegvelden (METAR en TAF).

De beschikbare stations zijn de gele en rode punten op de kaart.

Ga met uw muis naar het station om de naam te zien.

Klik dan om waarnemingen en weersverwachtingen te zien.

kaart wijzigen: klik op de groene knoppen met een zwart kruis om in te zoomen, op de groene knop met een streepje om uit te zoomen of op de groene pijlen voor aangrenzende kaarten.


METAR-TAF: